Time;durP1;ratioP1;P1;durP2;ratioP2;P2;SDS_P1;SDS_P2;PMS_P1;PMS_P2;Temp;Humidity;BMP_temperature;BMP_pressure;BME280_temperature;BME280_humidity;BME280_pressure;Samples;Min_cycle;Max_cycle;Signal;HPM_P1;HPM_P2
2021/11/10 00:01:26;;;;;;;4.10;3.57;;;5.90;97.00;;;;;;5043803;28;20195;-74
2021/11/10 00:03:52;;;;;;;2.60;2.43;;;5.90;97.10;;;;;;5043272;28;20642;-74
2021/11/10 00:06:18;;;;;;;4.60;3.07;;;5.90;97.30;;;;;;5044181;28;20187;-74
2021/11/10 00:08:44;;;;;;;2.70;2.60;;;5.90;97.80;;;;;;5043589;28;20214;-73
2021/11/10 00:11:09;;;;;;;2.73;2.50;;;5.90;97.90;;;;;;5042863;28;20195;-74
2021/11/10 00:13:35;;;;;;;3.07;2.43;;;5.90;98.10;;;;;;5043510;28;20507;-74
2021/11/10 00:16:00;;;;;;;2.93;2.83;;;5.90;98.00;;;;;;5042480;28;20195;-74
2021/11/10 00:18:26;;;;;;;4.60;2.33;;;5.90;97.90;;;;;;5041340;28;20184;-74
2021/11/10 00:20:52;;;;;;;2.37;1.43;;;5.80;97.70;;;;;;5045406;28;20190;-74
2021/11/10 00:23:18;;;;;;;2.27;1.70;;;5.80;97.50;;;;;;5042834;28;20198;-74
2021/11/10 00:25:44;;;;;;;1.73;1.63;;;5.80;97.50;;;;;;5043826;28;20558;-73
2021/11/10 00:28:09;;;;;;;2.20;2.10;;;5.80;97.30;;;;;;5042547;28;20191;-73
2021/11/10 00:30:35;;;;;;;1.80;1.60;;;5.80;97.30;;;;;;5042021;28;20313;-74
2021/11/10 00:33:02;;;;;;;1.37;1.37;;;5.80;97.30;;;;;;5041357;28;20237;-73
2021/11/10 00:35:28;;;;;;;2.80;2.60;;;5.80;97.10;;;;;;5043387;28;20198;-74
2021/11/10 00:37:53;;;;;;;1.53;1.43;;;5.70;97.20;;;;;;5043680;28;20183;-74
2021/11/10 00:40:19;;;;;;;2.00;1.80;;;5.70;97.10;;;;;;5043866;28;20214;-74
2021/11/10 00:42:45;;;;;;;1.70;1.60;;;5.70;97.00;;;;;;5042783;28;20180;-74
2021/11/10 00:45:11;;;;;;;1.97;1.70;;;5.60;97.00;;;;;;5042818;28;20176;-74
2021/11/10 00:47:37;;;;;;;3.40;1.97;;;5.60;96.90;;;;;;5042167;28;20176;-74
2021/11/10 00:50:05;;;;;;;2.50;1.67;;;5.60;97.00;;;;;;5043641;28;20213;-74
2021/11/10 00:52:31;;;;;;;1.03;1.03;;;5.50;97.10;;;;;;5042793;28;20188;-74
2021/11/10 00:54:56;;;;;;;1.30;1.30;;;5.40;97.40;;;;;;5045526;28;20184;-74
2021/11/10 00:57:22;;;;;;;2.50;1.53;;;5.40;97.50;;;;;;5045574;28;20268;-74
2021/11/10 00:59:48;;;;;;;1.00;1.00;;;5.30;97.60;;;;;;5045565;28;20211;-74
2021/11/10 01:02:14;;;;;;;1.10;1.10;;;5.30;97.50;;;;;;5045469;28;20203;-74
2021/11/10 01:04:40;;;;;;;1.03;1.03;;;5.30;97.50;;;;;;5044373;28;20203;-74
2021/11/10 01:07:07;;;;;;;1.20;1.20;;;5.30;97.50;;;;;;5043504;28;20302;-74
2021/11/10 01:09:39;;;;;;;2.53;0.93;;;5.20;97.40;;;;;;5044518;28;20195;-74
2021/11/10 01:12:07;;;;;;;0.60;0.60;;;5.20;97.50;;;;;;5044064;28;20658;-73
2021/11/10 01:14:33;;;;;;;0.60;0.60;;;5.20;97.40;;;;;;5044172;28;20692;-74
2021/11/10 01:16:59;;;;;;;1.17;0.87;;;5.20;97.30;;;;;;5045484;28;20179;-73
2021/11/10 01:19:25;;;;;;;0.50;0.50;;;5.20;97.50;;;;;;5043305;28;20215;-74
2021/11/10 01:21:50;;;;;;;0.50;0.50;;;5.10;97.60;;;;;;5045492;28;20183;-73
2021/11/10 01:24:16;;;;;;;0.97;0.67;;;5.10;97.70;;;;;;5045826;28;20180;-73
2021/11/10 01:26:42;;;;;;;0.50;0.50;;;5.10;97.80;;;;;;5046433;28;20240;-73
2021/11/10 01:29:07;;;;;;;0.90;0.90;;;5.10;97.60;;;;;;5044538;28;20187;-73
2021/11/10 01:31:33;;;;;;;1.57;1.13;;;5.10;97.40;;;;;;5048268;28;20244;-73
2021/11/10 01:34:03;;;;;;;0.70;0.70;;;5.10;97.60;;;;;;5050318;28;20240;-72
2021/11/10 01:36:29;;;;;;;1.17;0.70;;;5.00;97.50;;;;;;5044920;28;20603;-74
2021/11/10 01:38:55;;;;;;;0.70;0.70;;;5.00;97.60;;;;;;5048801;28;20724;-72
2021/11/10 01:41:20;;;;;;;0.67;0.63;;;5.00;97.70;;;;;;5049779;28;20186;-72
2021/11/10 01:43:49;;;;;;;0.70;0.70;;;4.90;97.80;;;;;;5048935;28;20248;-72
2021/11/10 01:46:15;;;;;;;0.77;0.77;;;4.90;97.90;;;;;;5045055;28;20271;-73
2021/11/10 01:48:41;;;;;;;0.73;0.73;;;4.80;98.00;;;;;;5049923;28;20194;-74
2021/11/10 01:51:07;;;;;;;0.67;0.67;;;4.80;98.00;;;;;;5048318;28;20183;-73
2021/11/10 01:53:34;;;;;;;1.10;0.63;;;4.80;98.20;;;;;;5050065;28;20186;-73
2021/11/10 01:56:01;;;;;;;0.43;0.43;;;4.80;98.10;;;;;;5047343;28;20180;-74
2021/11/10 01:58:28;;;;;;;0.87;0.87;;;4.80;98.00;;;;;;5045259;28;20191;-73
2021/11/10 02:00:54;;;;;;;1.00;1.00;;;4.80;97.90;;;;;;5044205;28;20176;-74
2021/11/10 02:03:20;;;;;;;0.93;0.93;;;4.80;98.00;;;;;;5048591;28;20262;-74
2021/11/10 02:05:47;;;;;;;0.90;0.90;;;4.80;97.90;;;;;;5048844;28;20271;-73
2021/11/10 02:08:13;;;;;;;1.30;1.20;;;4.80;98.00;;;;;;5049084;28;20571;-74
2021/11/10 02:10:40;;;;;;;0.97;0.97;;;4.80;98.00;;;;;;5046209;28;20844;-73
2021/11/10 02:13:07;;;;;;;1.10;1.10;;;4.80;98.10;;;;;;5043906;28;20253;-74
2021/11/10 02:15:34;;;;;;;1.07;1.07;;;4.80;98.20;;;;;;5046206;28;20186;-73
2021/11/10 02:18:02;;;;;;;1.63;1.00;;;4.80;98.00;;;;;;5046977;28;20617;-73
2021/11/10 02:20:34;;;;;;;1.27;1.17;;;4.80;98.00;;;;;;5047932;28;20219;-73
2021/11/10 02:23:02;;;;;;;1.77;1.50;;;4.70;98.20;;;;;;5047610;28;20191;-75
2021/11/10 02:25:28;;;;;;;1.33;1.33;;;4.70;98.20;;;;;;5049598;28;20180;-75
2021/11/10 02:27:58;;;;;;;1.40;1.30;;;4.70;98.10;;;;;;5045479;28;20611;-73
2021/11/10 02:30:24;;;;;;;1.63;1.17;;;4.70;98.10;;;;;;5048004;28;21370;-74
2021/11/10 02:32:57;;;;;;;1.70;1.60;;;4.70;98.20;;;;;;5049593;28;20186;-74
2021/11/10 02:35:25;;;;;;;1.57;1.20;;;4.70;98.20;;;;;;5046366;28;20287;-74
2021/11/10 02:37:54;;;;;;;1.13;1.00;;;4.70;98.50;;;;;;5048402;28;20184;-74
2021/11/10 02:40:20;;;;;;;0.80;0.80;;;4.60;98.50;;;;;;5050175;28;20207;-74
2021/11/10 02:42:46;;;;;;;0.77;0.77;;;4.60;98.50;;;;;;5047863;28;20270;-74
2021/11/10 02:45:12;;;;;;;1.07;1.07;;;4.60;98.50;;;;;;5046232;28;20643;-74
2021/11/10 02:47:40;;;;;;;0.70;0.70;;;4.60;98.50;;;;;;5048754;28;20533;-74
2021/11/10 02:50:06;;;;;;;0.63;0.63;;;4.60;98.50;;;;;;5045706;28;20183;-74
2021/11/10 02:52:31;;;;;;;0.80;0.80;;;4.60;98.50;;;;;;5049651;28;20184;-74
2021/11/10 02:54:57;;;;;;;4.23;0.70;;;4.60;98.50;;;;;;5047916;28;20182;-74
2021/11/10 02:57:26;;;;;;;0.60;0.60;;;4.60;98.50;;;;;;5048043;28;20179;-74
2021/11/10 02:59:53;;;;;;;4.70;0.87;;;4.60;98.50;;;;;;5046373;28;20241;-74
2021/11/10 03:02:26;;;;;;;0.90;0.90;;;4.70;98.50;;;;;;5047803;28;20852;-73
2021/11/10 03:04:52;;;;;;;2.20;0.70;;;4.70;98.50;;;;;;5048799;28;20686;-73
2021/11/10 03:07:18;;;;;;;0.77;0.63;;;4.70;98.50;;;;;;5047778;28;20180;-74
2021/11/10 03:09:45;;;;;;;1.23;0.80;;;4.70;98.50;;;;;;5045916;28;20557;-74
2021/11/10 03:12:12;;;;;;;0.77;0.77;;;4.70;98.50;;;;;;5045945;28;20203;-74
2021/11/10 03:14:41;;;;;;;0.60;0.60;;;4.70;98.50;;;;;;5047590;28;20188;-73
2021/11/10 03:17:09;;;;;;;0.57;0.53;;;4.70;98.50;;;;;;5046709;28;20664;-73
2021/11/10 03:19:36;;;;;;;0.17;0.17;;;4.70;98.50;;;;;;5044171;28;20220;-74
2021/11/10 03:22:06;;;;;;;1.47;0.53;;;4.70;98.40;;;;;;5047739;28;20657;-73
2021/11/10 03:24:32;;;;;;;0.90;0.90;;;4.70;98.50;;;;;;5045321;28;20183;-74
2021/11/10 03:26:59;;;;;;;1.13;0.60;;;4.70;98.20;;;;;;5047800;28;20175;-74
2021/11/10 03:29:24;;;;;;;0.60;0.60;;;4.70;98.20;;;;;;5047236;28;20191;-74
2021/11/10 03:31:50;;;;;;;0.60;0.60;;;4.70;98.20;;;;;;5047860;28;20178;-74
2021/11/10 03:34:16;;;;;;;0.70;0.70;;;4.70;98.00;;;;;;5046348;28;20259;-74
2021/11/10 03:36:42;;;;;;;0.60;0.60;;;4.70;98.00;;;;;;5047207;28;20336;-74
2021/11/10 03:39:12;;;;;;;0.60;0.60;;;4.70;97.80;;;;;;5048020;28;20226;-74
2021/11/10 03:41:38;;;;;;;3.80;0.50;;;4.70;97.70;;;;;;5046131;28;20278;-74
2021/11/10 03:44:05;;;;;;;0.67;0.67;;;4.60;97.60;;;;;;5045854;28;20180;-74
2021/11/10 03:46:31;;;;;;;2.97;0.97;;;4.60;97.70;;;;;;5046363;28;20229;-74
2021/11/10 03:48:58;;;;;;;0.93;0.93;;;4.60;97.60;;;;;;5046998;28;20188;-73
2021/11/10 03:51:23;;;;;;;0.70;0.70;;;4.60;97.60;;;;;;5045364;28;20236;-74
2021/11/10 03:53:49;;;;;;;0.70;0.70;;;4.60;97.60;;;;;;5045987;28;20187;-74
2021/11/10 03:56:16;;;;;;;0.80;0.80;;;4.60;97.60;;;;;;5045651;28;20546;-73
2021/11/10 03:58:42;;;;;;;0.60;0.60;;;4.50;97.60;;;;;;5046155;28;20215;-74
2021/11/10 04:01:08;;;;;;;0.80;0.80;;;4.50;97.50;;;;;;5044458;28;20267;-74
2021/11/10 04:03:35;;;;;;;2.20;0.93;;;4.50;97.50;;;;;;5045372;28;20183;-74
2021/11/10 04:06:01;;;;;;;0.47;0.47;;;4.50;97.50;;;;;;5046103;28;20190;-73
2021/11/10 04:08:27;;;;;;;0.80;0.80;;;4.50;97.50;;;;;;5046247;28;20271;-73
2021/11/10 04:10:53;;;;;;;0.60;0.60;;;4.50;97.50;;;;;;5045985;28;20617;-74
2021/11/10 04:13:19;;;;;;;0.50;0.50;;;4.50;97.50;;;;;;5044729;28;20179;-74
2021/11/10 04:15:45;;;;;;;0.70;0.70;;;4.40;97.50;;;;;;5044223;28;20598;-73
2021/11/10 04:18:11;;;;;;;0.60;0.60;;;4.40;97.40;;;;;;5046633;28;20187;-73
2021/11/10 04:20:36;;;;;;;4.63;0.80;;;4.40;97.40;;;;;;5044622;28;20686;-73
2021/11/10 04:23:02;;;;;;;0.63;0.63;;;4.40;97.50;;;;;;5045889;28;20199;-73
2021/11/10 04:25:28;;;;;;;0.60;0.60;;;4.50;97.30;;;;;;5045392;28;20258;-72
2021/11/10 04:27:54;;;;;;;0.70;0.70;;;4.50;97.20;;;;;;5045164;28;20270;-72
2021/11/10 04:30:20;;;;;;;0.77;0.77;;;4.50;97.10;;;;;;5046650;28;20196;-73
2021/11/10 04:32:46;;;;;;;0.53;0.50;;;4.50;97.00;;;;;;5043540;28;20245;-73
2021/11/10 04:35:14;;;;;;;2.70;0.90;;;4.50;96.90;;;;;;5047681;28;20191;-73
2021/11/10 04:37:40;;;;;;;0.77;0.77;;;4.50;96.80;;;;;;5043796;28;20190;-73
2021/11/10 04:40:09;;;;;;;1.00;1.00;;;4.50;96.70;;;;;;5045257;28;20230;-72
2021/11/10 04:42:37;;;;;;;0.97;0.70;;;4.50;96.60;;;;;;5043032;28;20180;-73
2021/11/10 04:45:07;;;;;;;1.00;0.90;;;4.50;96.50;;;;;;5044338;28;20720;-73
2021/11/10 04:47:34;;;;;;;0.77;0.77;;;4.50;96.40;;;;;;5044288;28;20179;-74
2021/11/10 04:50:01;;;;;;;0.70;0.70;;;4.50;96.40;;;;;;5046584;28;20193;-73
2021/11/10 04:52:27;;;;;;;0.80;0.80;;;4.50;96.40;;;;;;5043656;28;20179;-73
2021/11/10 04:54:53;;;;;;;0.83;0.83;;;4.50;96.30;;;;;;5044593;28;20308;-73
2021/11/10 04:57:19;;;;;;;0.47;0.47;;;4.50;96.20;;;;;;5043997;28;20176;-73
2021/11/10 04:59:45;;;;;;;0.60;0.60;;;4.50;96.20;;;;;;5043237;28;20214;-73
2021/11/10 05:04:39;;;;;;;0.90;0.90;;;4.50;96.10;;;;;;5044260;28;20184;-74
2021/11/10 05:07:05;;;;;;;0.70;0.70;;;4.50;96.00;;;;;;5043982;28;20183;-73
2021/11/10 05:09:31;;;;;;;1.00;0.90;;;4.50;96.00;;;;;;5045261;28;20176;-74
2021/11/10 05:11:57;;;;;;;0.73;0.60;;;4.50;95.70;;;;;;5044923;28;20237;-74
2021/11/10 05:14:24;;;;;;;0.90;0.80;;;4.50;95.70;;;;;;5045555;28;20180;-74
2021/11/10 05:16:50;;;;;;;1.47;0.70;;;4.60;95.50;;;;;;5043077;28;20612;-74
2021/11/10 05:19:16;;;;;;;0.90;0.90;;;4.60;95.40;;;;;;5043684;28;20214;-74
2021/11/10 05:21:43;;;;;;;0.70;0.70;;;4.60;95.40;;;;;;5044752;28;20669;-74
2021/11/10 05:24:09;;;;;;;0.73;0.73;;;4.60;95.30;;;;;;5045954;28;20175;-74
2021/11/10 05:26:37;;;;;;;0.90;0.90;;;4.60;95.00;;;;;;5043287;28;20211;-74
2021/11/10 05:29:04;;;;;;;0.60;0.60;;;4.70;95.00;;;;;;5041775;28;20190;-74
2021/11/10 05:31:30;;;;;;;0.53;0.53;;;4.70;95.00;;;;;;5041237;28;20916;-74
2021/11/10 05:33:55;;;;;;;0.70;0.70;;;4.70;94.70;;;;;;5040862;28;20195;-74
2021/11/10 05:36:21;;;;;;;1.20;1.13;;;4.70;94.70;;;;;;5041694;28;20192;-72
2021/11/10 05:38:47;;;;;;;0.70;0.70;;;4.80;94.70;;;;;;5040824;28;20814;-73
2021/11/10 05:41:13;;;;;;;0.83;0.83;;;4.80;94.50;;;;;;5041816;28;20184;-72
2021/11/10 05:43:38;;;;;;;0.63;0.63;;;4.80;94.50;;;;;;5045096;28;20190;-74
2021/11/10 05:46:04;;;;;;;1.43;1.10;;;4.90;94.30;;;;;;5043194;28;20179;-74
2021/11/10 05:48:30;;;;;;;0.70;0.70;;;4.90;94.20;;;;;;5042623;28;20183;-75
2021/11/10 05:50:57;;;;;;;1.53;1.20;;;5.00;94.50;;;;;;5043576;28;20580;-73
2021/11/10 05:53:23;;;;;;;1.13;0.97;;;5.00;94.30;;;;;;5042262;28;20693;-73
2021/11/10 05:55:52;;;;;;;1.20;1.10;;;5.10;94.20;;;;;;5041388;28;20836;-74
2021/11/10 05:58:19;;;;;;;1.10;1.10;;;5.10;93.80;;;;;;5039657;28;20184;-74
2021/11/10 06:00:46;;;;;;;1.60;1.50;;;5.20;93.70;;;;;;5040889;28;20790;-74
2021/11/10 06:03:11;;;;;;;0.90;0.90;;;5.20;93.40;;;;;;5039052;28;20685;-74
2021/11/10 06:05:37;;;;;;;1.10;1.10;;;5.30;93.50;;;;;;5042068;28;20302;-74
2021/11/10 06:08:03;;;;;;;1.03;1.03;;;5.40;93.70;;;;;;5043957;28;20938;-73
2021/11/10 06:10:31;;;;;;;1.07;1.07;;;5.50;93.40;;;;;;5042510;28;20182;-73
2021/11/10 06:12:57;;;;;;;1.07;1.03;;;5.60;93.60;;;;;;5040735;28;20272;-75
2021/11/10 06:15:23;;;;;;;0.90;0.90;;;5.70;93.40;;;;;;5043745;28;20267;-74
2021/11/10 06:17:49;;;;;;;1.63;0.87;;;5.80;93.30;;;;;;5047266;28;20634;-74
2021/11/10 06:20:15;;;;;;;1.10;1.10;;;5.80;93.30;;;;;;5047430;28;20235;-73
2021/11/10 06:22:42;;;;;;;1.00;1.00;;;6.00;92.80;;;;;;5046520;28;20188;-74
2021/11/10 06:25:11;;;;;;;0.93;0.93;;;6.10;92.60;;;;;;5045791;28;20237;-73
2021/11/10 06:27:37;;;;;;;1.07;1.07;;;6.20;92.30;;;;;;5045659;28;20276;-73
2021/11/10 06:30:06;;;;;;;1.27;1.17;;;6.40;91.80;;;;;;5047029;28;20180;-74
2021/11/10 06:32:32;;;;;;;1.60;1.30;;;6.70;91.40;;;;;;5030880;28;20768;-73
2021/11/10 06:34:58;;;;;;;1.13;1.03;;;6.90;90.00;;;;;;5046908;28;20230;-73
2021/11/10 06:37:23;;;;;;;1.40;0.97;;;7.20;89.40;;;;;;5046910;28;20225;-74
2021/11/10 06:39:49;;;;;;;0.93;0.93;;;7.60;88.50;;;;;;5044682;28;20211;-73
2021/11/10 06:42:15;;;;;;;1.37;1.37;;;8.00;88.30;;;;;;5047387;28;20593;-74
2021/11/10 06:44:40;;;;;;;1.47;1.47;;;8.40;87.30;;;;;;5046066;28;20187;-73
2021/11/10 06:47:06;;;;;;;2.17;2.07;;;8.70;86.20;;;;;;5045527;28;20223;-73
2021/11/10 06:49:32;;;;;;;2.10;1.90;;;9.20;85.00;;;;;;5045507;28;20608;-73
2021/11/10 06:51:58;;;;;;;1.80;1.70;;;9.60;83.40;;;;;;5046855;28;20248;-74
2021/11/10 06:54:26;;;;;;;1.50;1.47;;;10.00;82.10;;;;;;5045523;28;20184;-75
2021/11/10 06:56:53;;;;;;;2.20;2.00;;;10.40;81.00;;;;;;5046030;28;20190;-74
2021/11/10 06:59:19;;;;;;;2.13;1.93;;;10.70;79.20;;;;;;5044745;28;20207;-73
2021/11/10 07:01:47;;;;;;;1.63;1.53;;;11.10;78.90;;;;;;5046208;28;20241;-76
2021/11/10 07:04:13;;;;;;;3.13;1.65;;;11.30;77.80;;;;;;5043668;28;20270;-75
2021/11/10 07:06:39;;;;;;;1.77;1.67;;;11.50;77.40;;;;;;5044934;28;20321;-73
2021/11/10 07:09:08;;;;;;;2.67;2.00;;;11.70;77.50;;;;;;5044179;28;20282;-74
2021/11/10 07:11:35;;;;;;;1.73;1.63;;;12.00;76.40;;;;;;5045156;28;20218;-73
2021/11/10 07:14:05;;;;;;;1.92;1.75;;;12.30;76.50;;;;;;5044217;28;21035;-73
2021/11/10 07:16:30;;;;;;;2.22;2.13;;;12.50;74.00;;;;;;5044567;28;20290;-73
2021/11/10 07:18:56;;;;;;;2.05;1.95;;;12.80;74.60;;;;;;5045787;28;20215;-74
2021/11/10 07:21:22;;;;;;;3.30;1.95;;;13.10;73.30;;;;;;5045380;28;20195;-74
2021/11/10 07:23:48;;;;;;;1.70;1.60;;;13.50;73.20;;;;;;5044992;28;20212;-75
2021/11/10 07:26:14;;;;;;;2.05;1.95;;;13.90;72.30;;;;;;5047338;28;20183;-74
2021/11/10 07:28:40;;;;;;;1.50;1.38;;;14.20;71.70;;;;;;5044003;28;20725;-78
2021/11/10 07:31:05;;;;;;;2.13;1.90;;;14.40;70.30;;;;;;5047530;28;20263;-75
2021/11/10 07:33:31;;;;;;;1.38;1.38;;;14.60;69.80;;;;;;5046382;28;20183;-74
2021/11/10 07:35:57;;;;;;;4.38;1.90;;;14.90;69.90;;;;;;5045389;28;20214;-74
2021/11/10 07:38:25;;;;;;;1.40;1.40;;;15.30;68.90;;;;;;5046662;28;20176;-74
2021/11/10 07:40:54;;;;;;;1.17;1.08;;;15.60;68.00;;;;;;5044972;28;20219;-74
2021/11/10 07:43:23;;;;;;;1.67;1.58;;;15.90;66.40;;;;;;5041946;28;20180;-75
2021/11/10 07:45:52;;;;;;;1.35;1.35;;;16.10;66.10;;;;;;5044464;28;20180;-77
2021/11/10 07:48:19;;;;;;;1.55;1.50;;;16.30;65.10;;;;;;5043175;28;20180;-77
2021/11/10 07:50:45;;;;;;;1.30;1.30;;;16.00;63.30;;;;;;5043109;28;20187;-76
2021/11/10 07:53:12;;;;;;;1.58;1.58;;;15.80;63.20;;;;;;5043274;28;20262;-80
2021/11/10 07:55:38;;;;;;;1.42;1.42;;;15.60;64.40;;;;;;5045010;28;20563;-82
2021/11/10 07:58:03;;;;;;;1.70;1.70;;;15.60;66.00;;;;;;5047960;28;20187;-80
2021/11/10 08:00:29;;;;;;;2.35;1.05;;;15.90;65.10;;;;;;5043641;28;20220;-79
2021/11/10 08:02:55;;;;;;;1.10;1.10;;;16.10;65.20;;;;;;5045049;28;20749;-78
2021/11/10 08:05:23;;;;;;;1.35;1.35;;;16.60;65.70;;;;;;5045463;28;20180;-77
2021/11/10 08:07:48;;;;;;;1.58;1.48;;;17.00;64.00;;;;;;5044698;28;20335;-78
2021/11/10 08:10:16;;;;;;;1.77;1.23;;;17.20;63.20;;;;;;5043432;28;20183;-79
2021/11/10 08:12:42;;;;;;;1.20;1.20;;;17.50;62.50;;;;;;5047709;28;20253;-78
2021/11/10 08:15:11;;;;;;;1.27;1.10;;;17.30;61.90;;;;;;5049271;28;20210;-79
2021/11/10 08:18:01;;;;;;;1.30;1.30;;;17.20;63.00;;;;;;5045355;28;20194;-82
2021/11/10 08:20:27;;;;;;;1.45;1.35;;;17.40;61.50;;;;;;5046425;28;20977;-77
2021/11/10 08:22:52;;;;;;;1.02;1.02;;;17.30;61.80;;;;;;5046333;28;20180;-76
2021/11/10 08:25:18;;;;;;;0.93;0.93;;;16.90;60.70;;;;;;5046239;28;20230;-79
2021/11/10 08:27:45;;;;;;;1.30;1.20;;;16.60;60.70;;;;;;5045257;28;20656;-77
2021/11/10 08:30:15;;;;;;;1.48;1.42;;;16.40;62.20;;;;;;5046120;28;20638;-80
2021/11/10 08:32:41;;;;;;;1.13;1.13;;;16.20;63.00;;;;;;5044160;28;20639;-77
2021/11/10 08:35:08;;;;;;;1.80;1.40;;;16.40;62.10;;;;;;5045376;28;20199;-77
2021/11/10 08:37:34;;;;;;;1.23;1.23;;;16.30;62.10;;;;;;5044950;28;20209;-81
2021/11/10 08:40:01;;;;;;;1.90;1.23;;;16.60;63.20;;;;;;5047371;28;20280;-81
2021/11/10 08:42:33;;;;;;;0.70;0.70;;;16.80;60.30;;;;;;5048811;28;20262;-81
2021/11/10 08:45:16;;;;;;;0.95;0.95;;;17.10;61.90;;;;;;5041735;28;20272;-81
2021/11/10 08:47:43;;;;;;;0.77;0.77;;;17.60;59.50;;;;;;5044747;28;20203;-82
2021/11/10 08:50:10;;;;;;;3.20;1.17;;;18.00;60.50;;;;;;5045845;28;20183;-76
2021/11/10 08:52:36;;;;;;;1.52;1.35;;;18.40;60.30;;;;;;5043405;28;20184;-75
2021/11/10 08:55:05;;;;;;;1.00;1.00;;;18.80;57.90;;;;;;5044083;28;20225;-79
2021/11/10 08:57:31;;;;;;;1.35;1.35;;;18.70;57.00;;;;;;5044646;28;20253;-77
2021/11/10 08:59:57;;;;;;;1.17;1.17;;;18.80;58.20;;;;;;5044063;28;20226;-78
2021/11/10 09:02:23;;;;;;;1.15;0.98;;;19.10;56.30;;;;;;5044127;28;20191;-76
2021/11/10 09:04:48;;;;;;;1.00;1.00;;;19.00;58.20;;;;;;5040763;28;20184;-75
2021/11/10 09:07:14;;;;;;;1.10;1.10;;;19.30;57.80;;;;;;5044015;28;20280;-78
2021/11/10 09:09:40;;;;;;;1.20;1.20;;;19.80;57.10;;;;;;5047815;28;20195;-86
2021/11/10 09:12:07;;;;;;;1.00;1.00;;;20.20;56.20;;;;;;5047998;28;20215;-84
2021/11/10 09:14:33;;;;;;;1.27;1.23;;;20.10;54.20;;;;;;5046288;28;20207;-84
2021/11/10 09:16:59;;;;;;;0.82;0.80;;;19.80;55.20;;;;;;5046069;28;20921;-85
2021/11/10 09:19:25;;;;;;;1.02;1.02;;;19.30;54.90;;;;;;5046583;28;20720;-86
2021/11/10 09:21:51;;;;;;;1.27;0.93;;;18.80;56.10;;;;;;5046581;28;20180;-85
2021/11/10 09:24:17;;;;;;;0.88;0.88;;;18.60;55.80;;;;;;5042785;28;20200;-85
2021/11/10 09:26:42;;;;;;;1.20;1.08;;;18.50;57.10;;;;;;5044399;28;20574;-84
2021/11/10 09:29:09;;;;;;;1.23;0.95;;;18.60;57.70;;;;;;5043227;28;20184;-85
2021/11/10 09:31:36;;;;;;;0.73;0.73;;;18.80;56.60;;;;;;5043269;28;20190;-86
2021/11/10 09:34:07;;;;;;;1.25;0.90;;;19.10;57.40;;;;;;5043496;28;20265;-84
2021/11/10 09:36:34;;;;;;;0.85;0.85;;;19.30;56.90;;;;;;5044037;28;20245;-84
2021/11/10 09:39:00;;;;;;;1.05;1.05;;;19.70;56.10;;;;;;5044143;28;20222;-85
2021/11/10 09:41:26;;;;;;;1.10;1.10;;;20.10;55.40;;;;;;5043808;28;20176;-84
2021/11/10 09:43:52;;;;;;;1.40;1.40;;;20.10;53.40;;;;;;5043486;28;20213;-84
2021/11/10 09:46:18;;;;;;;0.85;0.85;;;19.80;55.00;;;;;;5043120;28;20211;-84
2021/11/10 09:48:45;;;;;;;1.27;1.17;;;19.50;54.00;;;;;;5042785;28;20203;-85
2021/11/10 09:51:11;;;;;;;1.17;1.17;;;19.00;55.70;;;;;;5044051;28;20317;-85
2021/11/10 09:53:37;;;;;;;1.05;1.05;;;18.90;56.30;;;;;;5046601;28;20175;-84
2021/11/10 09:56:04;;;;;;;0.98;0.98;;;18.90;56.20;;;;;;5044308;28;20620;-82
2021/11/10 09:58:32;;;;;;;0.95;0.95;;;18.90;56.60;;;;;;5046956;28;20249;-85
2021/11/10 10:01:06;;;;;;;1.10;1.10;;;19.20;57.10;;;;;;5047089;28;20211;-84
2021/11/10 10:03:33;;;;;;;1.02;1.02;;;19.30;55.40;;;;;;5044852;28;20192;-76
2021/11/10 10:05:59;;;;;;;0.80;0.80;;;19.20;56.00;;;;;;5044952;28;20179;-77
2021/11/10 10:08:25;;;;;;;0.93;0.93;;;19.30;55.10;;;;;;5042969;28;20187;-76
2021/11/10 10:10:51;;;;;;;1.00;1.00;;;19.50;55.80;;;;;;5046238;28;20325;-79
2021/11/10 10:13:18;;;;;;;0.90;0.90;;;19.80;55.50;;;;;;5044491;28;20348;-80
2021/11/10 10:15:47;;;;;;;0.93;0.80;;;20.20;55.10;;;;;;5043381;28;20214;-76
2021/11/10 10:18:26;;;;;;;1.00;1.00;;;19.90;54.70;;;;;;5043624;28;20823;-77
2021/11/10 10:21:00;;;;;;;0.95;0.95;;;20.10;55.50;;;;;;5044764;28;20302;-76
2021/11/10 10:23:36;;;;;;;0.85;0.85;;;20.50;56.00;;;;;;5044143;28;20202;-76
2021/11/10 10:26:16;;;;;;;0.90;0.90;;;21.00;54.70;;;;;;5042695;28;20183;-76
2021/11/10 10:28:54;;;;;;;2.92;1.15;;;21.70;53.60;;;;;;5044065;28;20183;-76
2021/11/10 10:31:24;;;;;;;1.10;1.10;;;21.70;52.80;;;;;;5045799;28;20238;-79
2021/11/10 10:33:53;;;;;;;1.05;1.05;;;21.90;52.10;;;;;;5044554;28;20186;-79
2021/11/10 10:36:22;;;;;;;2.17;1.00;;;21.60;52.00;;;;;;5045578;28;20225;-79
2021/11/10 10:38:51;;;;;;;0.75;0.75;;;21.60;52.50;;;;;;5045261;28;20566;-78
2021/11/10 10:41:26;;;;;;;0.88;0.88;;;21.00;51.20;;;;;;5044361;28;20188;-79
2021/11/10 10:43:53;;;;;;;0.80;0.80;;;20.40;53.80;;;;;;5043418;28;20258;-79
2021/11/10 10:46:25;;;;;;;0.77;0.77;;;20.40;52.90;;;;;;5043823;28;20183;-79
2021/11/10 10:49:10;;;;;;;0.93;0.93;;;20.40;54.40;;;;;;5048386;28;20190;-81
2021/11/10 10:51:37;;;;;;;0.77;0.77;;;20.50;54.00;;;;;;5046900;28;20199;-81
2021/11/10 10:54:07;;;;;;;0.90;0.90;;;20.50;53.20;;;;;;5046225;28;20176;-80
2021/11/10 10:56:35;;;;;;;1.52;1.30;;;20.60;54.30;;;;;;5041672;28;20187;-81
2021/11/10 10:59:03;;;;;;;1.08;1.02;;;20.80;54.00;;;;;;5043913;28;20211;-81
2021/11/10 11:01:42;;;;;;;1.20;1.20;;;20.90;51.50;;;;;;5044610;28;20446;-83
2021/11/10 11:04:09;;;;;;;0.90;0.90;;;20.70;52.60;;;;;;5044064;28;20202;-77
2021/11/10 11:06:45;;;;;;;0.85;0.85;;;21.00;52.80;;;;;;5047063;28;20172;-82
2021/11/10 11:09:18;;;;;;;1.00;1.00;;;21.30;52.20;;;;;;5046184;28;20187;-80
2021/11/10 11:12:05;;;;;;;0.65;0.65;;;21.90;52.90;;;;;;5044762;28;20254;-79
2021/11/10 11:17:30;;;;;;;1.10;1.10;;;21.90;50.50;;;;;;5045706;28;20183;-80
2021/11/10 11:20:30;;;;;;;0.90;0.90;;;21.90;51.60;;;;;;5043242;28;20211;-83
2021/11/10 11:22:57;;;;;;;1.00;1.00;;;22.00;51.10;;;;;;5044369;28;20237;-74
2021/11/10 11:25:26;;;;;;;0.88;0.88;;;21.90;49.70;;;;;;5044637;28;20254;-74
2021/11/10 11:27:57;;;;;;;1.00;1.00;;;21.80;50.70;;;;;;5041439;28;20178;-74
2021/11/10 11:30:25;;;;;;;2.70;1.08;;;21.60;51.40;;;;;;5043026;28;20681;-78
2021/11/10 11:32:55;;;;;;;1.10;1.10;;;21.50;51.20;;;;;;5044992;28;20183;-78
2021/11/10 11:35:30;;;;;;;1.08;1.08;;;20.30;51.50;;;;;;5045180;28;20198;-79
2021/11/10 11:38:03;;;;;;;1.00;1.00;;;20.30;51.40;;;;;;5044984;28;20175;-79
2021/11/10 11:40:32;;;;;;;1.15;1.15;;;20.00;51.40;;;;;;5043574;28;20211;-79
2021/11/10 11:42:59;;;;;;;1.15;1.15;;;19.40;52.50;;;;;;5048381;28;20184;-78
2021/11/10 11:45:31;;;;;;;1.10;1.10;;;19.40;55.40;;;;;;5055293;28;20184;-78
2021/11/10 11:47:58;;;;;;;1.20;1.20;;;19.40;52.20;;;;;;5055696;28;20171;-78
2021/11/10 11:50:24;;;;;;;3.80;1.10;;;19.10;53.00;;;;;;5064018;28;20211;-79
2021/11/10 11:52:51;;;;;;;1.08;1.08;;;18.90;54.20;;;;;;5058279;28;20590;-77
2021/11/10 11:55:25;;;;;;;0.98;0.98;;;18.80;54.40;;;;;;5057940;28;20176;-79
2021/11/10 11:58:08;;;;;;;0.70;0.70;;;18.90;54.10;;;;;;5054113;28;21183;-79
2021/11/10 12:00:42;;;;;;;0.90;0.90;;;19.10;55.50;;;;;;5055513;28;20951;-78
2021/11/10 12:03:33;;;;;;;1.08;1.02;;;19.60;54.20;;;;;;5043607;28;20185;-79
2021/11/10 12:06:02;;;;;;;0.98;0.98;;;20.10;52.70;;;;;;5041329;28;20355;-78
2021/11/10 12:08:46;;;;;;;0.90;0.90;;;20.00;52.60;;;;;;5039367;28;20745;-78
2021/11/10 12:11:23;;;;;;;1.25;1.25;;;19.90;51.90;;;;;;5039755;28;20223;-78
2021/11/10 12:14:01;;;;;;;1.15;1.15;;;20.00;53.90;;;;;;5040487;28;20179;-78
2021/11/10 12:16:28;;;;;;;1.13;1.02;;;19.90;52.10;;;;;;5042163;28;20180;-79
2021/11/10 12:19:00;;;;;;;4.78;1.25;;;19.70;52.70;;;;;;5042695;28;20207;-79
2021/11/10 12:21:54;;;;;;;1.20;1.20;;;19.70;54.40;;;;;;5042494;28;20252;-79
2021/11/10 12:24:29;;;;;;;0.75;0.75;;;19.60;53.40;;;;;;5042214;28;20207;-79
2021/11/10 12:27:08;;;;;;;1.02;1.02;;;19.60;54.60;;;;;;5044180;28;20191;-78
2021/11/10 12:30:23;;;;;;;1.80;1.38;;;19.70;53.00;;;;;;5041179;28;20288;-79
2021/11/10 12:32:58;;;;;;;1.38;1.38;;;19.20;52.50;;;;;;4981175;28;20860;-79
2021/11/10 12:35:33;;;;;;;1.02;1.02;;;18.90;54.30;;;;;;4981405;28;20209;-77
2021/11/10 12:38:00;;;;;;;1.30;1.20;;;18.80;53.90;;;;;;4965673;28;20717;-77
2021/11/10 12:40:29;;;;;;;1.00;1.00;;;18.50;53.90;;;;;;4965362;28;20213;-77
2021/11/10 12:43:12;;;;;;;1.10;1.10;;;18.40;54.80;;;;;;4982485;28;20185;-75
2021/11/10 12:46:21;;;;;;;0.85;0.85;;;18.40;55.20;;;;;;4981461;28;20193;-79
2021/11/10 12:48:48;;;;;;;1.40;1.30;;;18.70;55.80;;;;;;4928994;29;20382;-78
2021/11/10 12:51:18;;;;;;;1.88;1.20;;;19.10;55.60;;;;;;4915983;29;20345;-78
2021/11/10 12:53:47;;;;;;;2.28;1.10;;;19.30;54.10;;;;;;4929045;29;20203;-77
2021/11/10 12:56:14;;;;;;;1.00;1.00;;;19.10;53.80;;;;;;4926941;29;20195;-78
2021/11/10 12:58:40;;;;;;;1.17;1.17;;;19.00;53.80;;;;;;4924321;29;21154;-77
2021/11/10 13:01:12;;;;;;;1.58;1.55;;;18.70;54.20;;;;;;4924109;29;20249;-78
2021/11/10 13:03:39;;;;;;;1.25;0.93;;;18.10;54.90;;;;;;4925597;29;20224;-78